sensor_id;sensor_type;location;lat;lon;timestamp;temperature;humidity
46416;DHT22;32620;51.704;7.822;2022-08-06T00:01:45;11.80;99.90
46416;DHT22;32620;51.704;7.822;2022-08-06T00:04:11;11.70;99.90
46416;DHT22;32620;51.704;7.822;2022-08-06T00:06:36;11.70;99.90
46416;DHT22;32620;51.704;7.822;2022-08-06T00:09:02;11.60;99.90
46416;DHT22;32620;51.704;7.822;2022-08-06T00:11:27;11.60;99.90
46416;DHT22;32620;51.704;7.822;2022-08-06T00:13:52;11.60;99.90
46416;DHT22;32620;51.704;7.822;2022-08-06T00:16:18;11.50;99.90
46416;DHT22;32620;51.704;7.822;2022-08-06T00:18:43;11.50;99.90
46416;DHT22;32620;51.704;7.822;2022-08-06T00:21:09;11.50;99.90
46416;DHT22;32620;51.704;7.822;2022-08-06T00:23:34;11.50;99.90
46416;DHT22;32620;51.704;7.822;2022-08-06T00:26:00;11.50;99.90
46416;DHT22;32620;51.704;7.822;2022-08-06T00:28:25;11.50;99.90
46416;DHT22;32620;51.704;7.822;2022-08-06T00:30:51;11.40;99.90
46416;DHT22;32620;51.704;7.822;2022-08-06T00:33:17;11.30;99.90
46416;DHT22;32620;51.704;7.822;2022-08-06T00:35:43;11.20;99.90
46416;DHT22;32620;51.704;7.822;2022-08-06T00:38:09;11.20;99.90
46416;DHT22;32620;51.704;7.822;2022-08-06T00:40:34;11.10;99.90
46416;DHT22;32620;51.704;7.822;2022-08-06T00:43:01;11.10;99.90
46416;DHT22;32620;51.704;7.822;2022-08-06T00:45:30;11.00;99.90
46416;DHT22;32620;51.704;7.822;2022-08-06T00:47:56;11.00;99.90
46416;DHT22;32620;51.704;7.822;2022-08-06T00:50:21;11.00;99.90
46416;DHT22;32620;51.704;7.822;2022-08-06T00:52:47;11.00;99.90
46416;DHT22;32620;51.704;7.822;2022-08-06T00:55:12;10.90;99.90
46416;DHT22;32620;51.704;7.822;2022-08-06T00:57:38;10.90;99.90
46416;DHT22;32620;51.704;7.822;2022-08-06T01:00:04;10.80;99.90
46416;DHT22;32620;51.704;7.822;2022-08-06T01:02:30;10.70;99.90
46416;DHT22;32620;51.704;7.822;2022-08-06T01:04:56;10.70;99.90
46416;DHT22;32620;51.704;7.822;2022-08-06T01:07:21;10.60;99.90
46416;DHT22;32620;51.704;7.822;2022-08-06T01:09:47;10.60;99.90
46416;DHT22;32620;51.704;7.822;2022-08-06T01:12:14;10.50;99.90
46416;DHT22;32620;51.704;7.822;2022-08-06T01:14:40;10.50;99.90
46416;DHT22;32620;51.704;7.822;2022-08-06T01:17:07;10.50;99.90
46416;DHT22;32620;51.704;7.822;2022-08-06T01:19:40;10.50;99.90
46416;DHT22;32620;51.704;7.822;2022-08-06T01:24:56;10.40;99.90
46416;DHT22;32620;51.704;7.822;2022-08-06T01:30:06;10.30;99.90
46416;DHT22;32620;51.704;7.822;2022-08-06T01:32:34;10.30;99.90
46416;DHT22;32620;51.704;7.822;2022-08-06T01:35:03;10.30;99.90
46416;DHT22;32620;51.704;7.822;2022-08-06T01:37:33;10.20;99.90
46416;DHT22;32620;51.704;7.822;2022-08-06T01:40:02;10.20;99.90
46416;DHT22;32620;51.704;7.822;2022-08-06T01:42:29;10.20;99.90
46416;DHT22;32620;51.704;7.822;2022-08-06T01:44:54;10.10;99.90
46416;DHT22;32620;51.704;7.822;2022-08-06T01:47:21;10.10;99.90
46416;DHT22;32620;51.704;7.822;2022-08-06T01:49:51;10.10;99.90
46416;DHT22;32620;51.704;7.822;2022-08-06T01:52:16;10.00;99.90
46416;DHT22;32620;51.704;7.822;2022-08-06T01:54:44;10.00;99.90
46416;DHT22;32620;51.704;7.822;2022-08-06T01:57:10;10.00;99.90
46416;DHT22;32620;51.704;7.822;2022-08-06T01:59:37;10.00;99.90
46416;DHT22;32620;51.704;7.822;2022-08-06T02:02:08;10.00;99.90
46416;DHT22;32620;51.704;7.822;2022-08-06T02:04:36;9.90;99.90
46416;DHT22;32620;51.704;7.822;2022-08-06T02:07:03;9.90;99.90
46416;DHT22;32620;51.704;7.822;2022-08-06T02:09:30;9.90;99.90
46416;DHT22;32620;51.704;7.822;2022-08-06T02:11:57;9.90;99.90
46416;DHT22;32620;51.704;7.822;2022-08-06T02:14:24;9.90;99.90
46416;DHT22;32620;51.704;7.822;2022-08-06T02:16:51;9.90;99.90
46416;DHT22;32620;51.704;7.822;2022-08-06T02:19:20;9.80;99.90
46416;DHT22;32620;51.704;7.822;2022-08-06T02:21:46;9.80;99.90
46416;DHT22;32620;51.704;7.822;2022-08-06T02:24:13;9.80;99.90
46416;DHT22;32620;51.704;7.822;2022-08-06T02:26:39;9.80;99.90
46416;DHT22;32620;51.704;7.822;2022-08-06T02:29:05;9.80;99.90
46416;DHT22;32620;51.704;7.822;2022-08-06T02:31:32;9.80;99.90
46416;DHT22;32620;51.704;7.822;2022-08-06T02:33:58;9.80;99.90
46416;DHT22;32620;51.704;7.822;2022-08-06T02:36:26;9.70;99.90
46416;DHT22;32620;51.704;7.822;2022-08-06T02:38:56;9.80;99.90
46416;DHT22;32620;51.704;7.822;2022-08-06T02:41:24;9.70;99.90
46416;DHT22;32620;51.704;7.822;2022-08-06T02:43:54;9.70;99.90
46416;DHT22;32620;51.704;7.822;2022-08-06T02:46:23;9.70;99.90
46416;DHT22;32620;51.704;7.822;2022-08-06T02:49:22;9.70;99.90
46416;DHT22;32620;51.704;7.822;2022-08-06T02:51:37;9.60;99.90
46416;DHT22;32620;51.704;7.822;2022-08-06T02:54:05;9.70;99.90
46416;DHT22;32620;51.704;7.822;2022-08-06T02:56:32;9.60;99.90
46416;DHT22;32620;51.704;7.822;2022-08-06T02:58:58;9.60;99.90
46416;DHT22;32620;51.704;7.822;2022-08-06T03:01:34;9.60;99.90
46416;DHT22;32620;51.704;7.822;2022-08-06T03:04:01;9.70;99.90
46416;DHT22;32620;51.704;7.822;2022-08-06T03:06:31;9.70;99.90
46416;DHT22;32620;51.704;7.822;2022-08-06T03:08:58;9.70;99.90
46416;DHT22;32620;51.704;7.822;2022-08-06T03:11:24;9.60;99.90
46416;DHT22;32620;51.704;7.822;2022-08-06T03:13:51;9.60;99.90
46416;DHT22;32620;51.704;7.822;2022-08-06T03:16:17;9.60;99.90
46416;DHT22;32620;51.704;7.822;2022-08-06T03:18:43;9.70;99.90
46416;DHT22;32620;51.704;7.822;2022-08-06T03:21:10;9.60;99.90
46416;DHT22;32620;51.704;7.822;2022-08-06T03:23:36;9.60;99.90
46416;DHT22;32620;51.704;7.822;2022-08-06T03:26:02;9.60;99.90
46416;DHT22;32620;51.704;7.822;2022-08-06T03:28:29;9.50;99.90
46416;DHT22;32620;51.704;7.822;2022-08-06T03:30:55;9.50;99.90
46416;DHT22;32620;51.704;7.822;2022-08-06T03:33:21;9.50;99.90
46416;DHT22;32620;51.704;7.822;2022-08-06T03:35:47;9.50;99.90
46416;DHT22;32620;51.704;7.822;2022-08-06T03:38:13;9.50;99.90
46416;DHT22;32620;51.704;7.822;2022-08-06T03:40:42;9.50;99.90
46416;DHT22;32620;51.704;7.822;2022-08-06T03:43:08;9.50;99.90
46416;DHT22;32620;51.704;7.822;2022-08-06T03:45:35;9.50;99.90
46416;DHT22;32620;51.704;7.822;2022-08-06T03:48:01;9.50;99.90
46416;DHT22;32620;51.704;7.822;2022-08-06T03:50:29;9.40;99.90
46416;DHT22;32620;51.704;7.822;2022-08-06T03:52:57;9.40;99.90
46416;DHT22;32620;51.704;7.822;2022-08-06T03:55:25;9.40;99.90
46416;DHT22;32620;51.704;7.822;2022-08-06T03:57:52;9.40;99.90
46416;DHT22;32620;51.704;7.822;2022-08-06T04:00:19;9.40;99.90
46416;DHT22;32620;51.704;7.822;2022-08-06T04:02:47;9.40;99.90
46416;DHT22;32620;51.704;7.822;2022-08-06T04:05:18;9.40;99.90
46416;DHT22;32620;51.704;7.822;2022-08-06T04:07:43;9.40;99.90
46416;DHT22;32620;51.704;7.822;2022-08-06T04:10:09;9.40;99.90
46416;DHT22;32620;51.704;7.822;2022-08-06T04:12:35;9.40;99.90
46416;DHT22;32620;51.704;7.822;2022-08-06T04:15:01;9.30;99.90
46416;DHT22;32620;51.704;7.822;2022-08-06T04:17:27;9.40;99.90
46416;DHT22;32620;51.704;7.822;2022-08-06T04:19:53;9.40;99.90
46416;DHT22;32620;51.704;7.822;2022-08-06T04:22:19;9.40;99.90
46416;DHT22;32620;51.704;7.822;2022-08-06T04:24:45;9.40;99.90
46416;DHT22;32620;51.704;7.822;2022-08-06T04:27:11;9.40;99.90
46416;DHT22;32620;51.704;7.822;2022-08-06T04:29:38;9.50;99.90
46416;DHT22;32620;51.704;7.822;2022-08-06T04:32:04;9.50;99.90
46416;DHT22;32620;51.704;7.822;2022-08-06T04:34:30;9.60;99.90
46416;DHT22;32620;51.704;7.822;2022-08-06T04:36:57;9.60;99.90
46416;DHT22;32620;51.704;7.822;2022-08-06T04:39:23;9.70;99.90
46416;DHT22;32620;51.704;7.822;2022-08-06T04:41:49;9.70;99.90
46416;DHT22;32620;51.704;7.822;2022-08-06T04:44:15;9.70;99.90
46416;DHT22;32620;51.704;7.822;2022-08-06T04:46:40;9.70;99.90
46416;DHT22;32620;51.704;7.822;2022-08-06T04:49:06;9.80;99.90
46416;DHT22;32620;51.704;7.822;2022-08-06T04:51:32;9.90;99.90
46416;DHT22;32620;51.704;7.822;2022-08-06T04:54:02;10.00;99.90
46416;DHT22;32620;51.704;7.822;2022-08-06T04:56:28;10.10;99.90
46416;DHT22;32620;51.704;7.822;2022-08-06T04:58:54;10.60;99.90
46416;DHT22;32620;51.704;7.822;2022-08-06T05:01:19;11.20;99.90
46416;DHT22;32620;51.704;7.822;2022-08-06T05:03:44;11.60;99.90
46416;DHT22;32620;51.704;7.822;2022-08-06T05:08:48;11.40;99.90
46416;DHT22;32620;51.704;7.822;2022-08-06T05:11:31;11.30;99.90
46416;DHT22;32620;51.704;7.822;2022-08-06T05:14:01;11.30;99.90
46416;DHT22;32620;51.704;7.822;2022-08-06T05:16:26;11.40;99.90
46416;DHT22;32620;51.704;7.822;2022-08-06T05:18:55;11.40;99.90
46416;DHT22;32620;51.704;7.822;2022-08-06T05:21:24;11.50;99.90
46416;DHT22;32620;51.704;7.822;2022-08-06T05:23:51;11.50;99.90
46416;DHT22;32620;51.704;7.822;2022-08-06T05:26:18;11.60;99.90
46416;DHT22;32620;51.704;7.822;2022-08-06T05:28:44;11.70;99.90
46416;DHT22;32620;51.704;7.822;2022-08-06T05:31:10;11.80;99.90
46416;DHT22;32620;51.704;7.822;2022-08-06T05:33:36;11.90;99.90
46416;DHT22;32620;51.704;7.822;2022-08-06T05:36:02;11.90;99.90
46416;DHT22;32620;51.704;7.822;2022-08-06T05:38:29;12.10;99.90
46416;DHT22;32620;51.704;7.822;2022-08-06T05:40:55;12.20;99.90
46416;DHT22;32620;51.704;7.822;2022-08-06T05:43:21;12.40;99.90
46416;DHT22;32620;51.704;7.822;2022-08-06T05:45:47;12.70;99.90
46416;DHT22;32620;51.704;7.822;2022-08-06T05:48:13;13.20;99.90
46416;DHT22;32620;51.704;7.822;2022-08-06T05:50:39;14.30;99.90
46416;DHT22;32620;51.704;7.822;2022-08-06T05:53:09;18.00;99.90
46416;DHT22;32620;51.704;7.822;2022-08-06T05:55:40;18.40;99.90
46416;DHT22;32620;51.704;7.822;2022-08-06T05:58:11;20.10;99.90
46416;DHT22;32620;51.704;7.822;2022-08-06T06:00:37;20.50;99.90
46416;DHT22;32620;51.704;7.822;2022-08-06T06:03:05;21.80;99.90
46416;DHT22;32620;51.704;7.822;2022-08-06T06:05:31;22.00;99.90
46416;DHT22;32620;51.704;7.822;2022-08-06T06:07:57;22.30;99.90
46416;DHT22;32620;51.704;7.822;2022-08-06T06:10:24;21.70;99.90
46416;DHT22;32620;51.704;7.822;2022-08-06T06:12:50;22.20;99.90
46416;DHT22;32620;51.704;7.822;2022-08-06T06:15:16;22.80;99.90
46416;DHT22;32620;51.704;7.822;2022-08-06T06:17:51;22.70;99.90
46416;DHT22;32620;51.704;7.822;2022-08-06T06:22:57;23.30;98.90
46416;DHT22;32620;51.704;7.822;2022-08-06T06:25:33;24.00;97.90
46416;DHT22;32620;51.704;7.822;2022-08-06T06:28:00;24.30;96.30
46416;DHT22;32620;51.704;7.822;2022-08-06T06:30:46;24.40;95.60
46416;DHT22;32620;51.704;7.822;2022-08-06T06:33:22;23.90;96.50
46416;DHT22;32620;51.704;7.822;2022-08-06T06:35:53;23.90;96.50
46416;DHT22;32620;51.704;7.822;2022-08-06T06:38:23;24.20;95.70
46416;DHT22;32620;51.704;7.822;2022-08-06T06:40:53;24.00;96.60
46416;DHT22;32620;51.704;7.822;2022-08-06T06:43:22;25.40;94.50
46416;DHT22;32620;51.704;7.822;2022-08-06T06:46:00;26.30;92.90
46416;DHT22;32620;51.704;7.822;2022-08-06T06:48:32;26.50;90.80
46416;DHT22;32620;51.704;7.822;2022-08-06T06:51:02;26.30;90.60
46416;DHT22;32620;51.704;7.822;2022-08-06T06:53:28;26.40;89.90
46416;DHT22;32620;51.704;7.822;2022-08-06T06:55:55;26.10;89.80
46416;DHT22;32620;51.704;7.822;2022-08-06T06:58:25;25.40;90.60
46416;DHT22;32620;51.704;7.822;2022-08-06T07:00:53;25.30;92.60
46416;DHT22;32620;51.704;7.822;2022-08-06T07:03:18;25.70;91.10
46416;DHT22;32620;51.704;7.822;2022-08-06T07:05:45;25.20;92.20
46416;DHT22;32620;51.704;7.822;2022-08-06T07:08:11;25.60;91.30
46416;DHT22;32620;51.704;7.822;2022-08-06T07:10:38;25.80;89.30
46416;DHT22;32620;51.704;7.822;2022-08-06T07:13:04;26.90;88.30
46416;DHT22;32620;51.704;7.822;2022-08-06T07:15:30;26.90;85.70
46416;DHT22;32620;51.704;7.822;2022-08-06T07:17:56;26.90;87.30
46416;DHT22;32620;51.704;7.822;2022-08-06T07:20:25;26.50;83.40
46416;DHT22;32620;51.704;7.822;2022-08-06T07:22:51;26.40;86.30
46416;DHT22;32620;51.704;7.822;2022-08-06T07:25:17;26.60;86.40
46416;DHT22;32620;51.704;7.822;2022-08-06T07:27:45;26.90;84.80
46416;DHT22;32620;51.704;7.822;2022-08-06T07:30:11;26.60;82.50
46416;DHT22;32620;51.704;7.822;2022-08-06T07:32:38;27.30;80.90
46416;DHT22;32620;51.704;7.822;2022-08-06T07:35:04;27.00;80.80
46416;DHT22;32620;51.704;7.822;2022-08-06T07:37:30;25.70;84.70
46416;DHT22;32620;51.704;7.822;2022-08-06T07:39:57;26.50;83.20
46416;DHT22;32620;51.704;7.822;2022-08-06T07:42:25;27.10;79.40
46416;DHT22;32620;51.704;7.822;2022-08-06T07:44:52;27.70;78.80
46416;DHT22;32620;51.704;7.822;2022-08-06T07:47:19;26.70;78.30
46416;DHT22;32620;51.704;7.822;2022-08-06T07:49:49;27.10;80.70
46416;DHT22;32620;51.704;7.822;2022-08-06T07:52:15;26.20;81.00
46416;DHT22;32620;51.704;7.822;2022-08-06T07:54:41;26.10;80.90
46416;DHT22;32620;51.704;7.822;2022-08-06T07:57:07;26.70;81.40
46416;DHT22;32620;51.704;7.822;2022-08-06T07:59:32;27.30;77.60
46416;DHT22;32620;51.704;7.822;2022-08-06T08:01:58;27.80;76.30
46416;DHT22;32620;51.704;7.822;2022-08-06T08:04:25;27.00;75.70
46416;DHT22;32620;51.704;7.822;2022-08-06T08:07:11;26.80;77.20
46416;DHT22;32620;51.704;7.822;2022-08-06T08:09:36;26.70;74.20
46416;DHT22;32620;51.704;7.822;2022-08-06T08:12:03;26.70;75.10
46416;DHT22;32620;51.704;7.822;2022-08-06T08:14:30;26.30;75.90
46416;DHT22;32620;51.704;7.822;2022-08-06T08:16:56;26.20;76.40
46416;DHT22;32620;51.704;7.822;2022-08-06T08:19:22;24.80;80.90
46416;DHT22;32620;51.704;7.822;2022-08-06T08:21:49;24.90;72.60
46416;DHT22;32620;51.704;7.822;2022-08-06T08:24:14;25.30;73.80
46416;DHT22;32620;51.704;7.822;2022-08-06T08:26:41;25.70;75.50
46416;DHT22;32620;51.704;7.822;2022-08-06T08:29:06;27.00;74.20
46416;DHT22;32620;51.704;7.822;2022-08-06T08:31:32;28.40;69.00
46416;DHT22;32620;51.704;7.822;2022-08-06T08:33:57;27.80;71.00
46416;DHT22;32620;51.704;7.822;2022-08-06T08:36:23;28.20;67.70
46416;DHT22;32620;51.704;7.822;2022-08-06T08:38:48;27.60;67.00
46416;DHT22;32620;51.704;7.822;2022-08-06T08:41:19;28.30;69.40
46416;DHT22;32620;51.704;7.822;2022-08-06T08:43:48;27.60;68.30
46416;DHT22;32620;51.704;7.822;2022-08-06T08:46:15;27.00;68.30
46416;DHT22;32620;51.704;7.822;2022-08-06T08:48:41;27.00;67.50
46416;DHT22;32620;51.704;7.822;2022-08-06T08:51:08;27.20;65.10
46416;DHT22;32620;51.704;7.822;2022-08-06T08:53:39;26.90;64.60
46416;DHT22;32620;51.704;7.822;2022-08-06T08:56:07;27.50;67.80
46416;DHT22;32620;51.704;7.822;2022-08-06T08:58:33;27.90;65.80
46416;DHT22;32620;51.704;7.822;2022-08-06T09:01:02;26.80;68.80
46416;DHT22;32620;51.704;7.822;2022-08-06T09:03:28;26.70;69.80
46416;DHT22;32620;51.704;7.822;2022-08-06T09:05:54;27.90;68.40
46416;DHT22;32620;51.704;7.822;2022-08-06T09:08:21;28.20;64.70
46416;DHT22;32620;51.704;7.822;2022-08-06T09:10:46;29.00;61.20
46416;DHT22;32620;51.704;7.822;2022-08-06T09:13:12;28.10;66.90
46416;DHT22;32620;51.704;7.822;2022-08-06T09:15:37;27.70;63.00
46416;DHT22;32620;51.704;7.822;2022-08-06T09:18:04;27.10;63.50
46416;DHT22;32620;51.704;7.822;2022-08-06T09:20:29;27.10;63.80
46416;DHT22;32620;51.704;7.822;2022-08-06T09:22:55;26.20;65.00
46416;DHT22;32620;51.704;7.822;2022-08-06T09:25:52;27.10;65.90
46416;DHT22;32620;51.704;7.822;2022-08-06T09:28:09;27.60;64.10
46416;DHT22;32620;51.704;7.822;2022-08-06T09:30:36;26.70;66.70
46416;DHT22;32620;51.704;7.822;2022-08-06T09:33:01;27.10;63.40
46416;DHT22;32620;51.704;7.822;2022-08-06T09:35:28;26.30;62.60
46416;DHT22;32620;51.704;7.822;2022-08-06T09:38:03;26.80;65.00
46416;DHT22;32620;51.704;7.822;2022-08-06T09:40:28;27.00;62.90
46416;DHT22;32620;51.704;7.822;2022-08-06T09:42:54;27.50;66.30
46416;DHT22;32620;51.704;7.822;2022-08-06T09:45:20;28.10;62.10
46416;DHT22;32620;51.704;7.822;2022-08-06T09:47:48;27.90;62.60
46416;DHT22;32620;51.704;7.822;2022-08-06T09:50:13;27.50;62.80
46416;DHT22;32620;51.704;7.822;2022-08-06T09:52:39;26.90;64.10
46416;DHT22;32620;51.704;7.822;2022-08-06T09:55:05;26.80;63.10
46416;DHT22;32620;51.704;7.822;2022-08-06T09:57:45;27.70;60.40
46416;DHT22;32620;51.704;7.822;2022-08-06T10:00:11;28.50;60.80
46416;DHT22;32620;51.704;7.822;2022-08-06T10:02:49;27.30;60.60
46416;DHT22;32620;51.704;7.822;2022-08-06T10:05:15;27.10;65.60
46416;DHT22;32620;51.704;7.822;2022-08-06T10:07:40;26.70;65.70
46416;DHT22;32620;51.704;7.822;2022-08-06T10:10:06;25.90;63.80
46416;DHT22;32620;51.704;7.822;2022-08-06T10:12:32;25.10;63.90
46416;DHT22;32620;51.704;7.822;2022-08-06T10:14:58;24.40;68.50
46416;DHT22;32620;51.704;7.822;2022-08-06T10:17:24;25.20;68.90
46416;DHT22;32620;51.704;7.822;2022-08-06T10:20:06;25.60;66.80
46416;DHT22;32620;51.704;7.822;2022-08-06T10:22:31;25.70;65.10
46416;DHT22;32620;51.704;7.822;2022-08-06T10:24:58;26.70;64.80
46416;DHT22;32620;51.704;7.822;2022-08-06T10:27:28;25.90;62.00
46416;DHT22;32620;51.704;7.822;2022-08-06T10:29:54;24.90;65.90
46416;DHT22;32620;51.704;7.822;2022-08-06T10:32:22;25.70;63.10
46416;DHT22;32620;51.704;7.822;2022-08-06T10:34:48;26.00;62.40
46416;DHT22;32620;51.704;7.822;2022-08-06T10:37:14;27.20;61.10
46416;DHT22;32620;51.704;7.822;2022-08-06T10:39:42;27.40;63.20
46416;DHT22;32620;51.704;7.822;2022-08-06T10:42:10;27.30;59.90
46416;DHT22;32620;51.704;7.822;2022-08-06T10:44:37;26.90;62.30
46416;DHT22;32620;51.704;7.822;2022-08-06T10:47:03;25.60;61.40
46416;DHT22;32620;51.704;7.822;2022-08-06T10:49:29;24.30;64.60
46416;DHT22;32620;51.704;7.822;2022-08-06T10:51:55;24.10;65.30
46416;DHT22;32620;51.704;7.822;2022-08-06T10:54:21;24.20;65.60
46416;DHT22;32620;51.704;7.822;2022-08-06T10:56:47;24.70;65.90
46416;DHT22;32620;51.704;7.822;2022-08-06T10:59:13;24.80;66.70
46416;DHT22;32620;51.704;7.822;2022-08-06T11:02:12;25.10;66.80
46416;DHT22;32620;51.704;7.822;2022-08-06T11:04:31;25.00;65.80
46416;DHT22;32620;51.704;7.822;2022-08-06T11:15:15;25.30;60.10
46416;DHT22;32620;51.704;7.822;2022-08-06T11:17:42;24.80;63.00
46416;DHT22;32620;51.704;7.822;2022-08-06T11:20:07;24.70;64.00
46416;DHT22;32620;51.704;7.822;2022-08-06T11:22:34;24.60;67.30
46416;DHT22;32620;51.704;7.822;2022-08-06T11:25:00;24.90;64.80
46416;DHT22;32620;51.704;7.822;2022-08-06T11:27:57;24.90;65.50
46416;DHT22;32620;51.704;7.822;2022-08-06T11:30:11;25.30;65.80
46416;DHT22;32620;51.704;7.822;2022-08-06T11:32:52;25.30;64.20
46416;DHT22;32620;51.704;7.822;2022-08-06T11:38:13;24.70;66.00
46416;DHT22;32620;51.704;7.822;2022-08-06T11:40:55;25.10;65.20
46416;DHT22;32620;51.704;7.822;2022-08-06T11:46:22;24.40;63.60
46416;DHT22;32620;51.704;7.822;2022-08-06T11:49:20;24.00;64.70
46416;DHT22;32620;51.704;7.822;2022-08-06T11:54:16;24.80;59.50
46416;DHT22;32620;51.704;7.822;2022-08-06T11:59:32;24.60;59.10
46416;DHT22;32620;51.704;7.822;2022-08-06T12:01:58;24.70;62.60
46416;DHT22;32620;51.704;7.822;2022-08-06T12:04:40;25.10;63.70
46416;DHT22;32620;51.704;7.822;2022-08-06T12:07:38;24.90;60.00
46416;DHT22;32620;51.704;7.822;2022-08-06T12:10:08;25.10;63.70
46416;DHT22;32620;51.704;7.822;2022-08-06T12:12:42;24.80;62.10
46416;DHT22;32620;51.704;7.822;2022-08-06T12:17:58;25.30;63.30
46416;DHT22;32620;51.704;7.822;2022-08-06T12:20:35;25.00;61.90
46416;DHT22;32620;51.704;7.822;2022-08-06T12:23:01;25.20;61.10
46416;DHT22;32620;51.704;7.822;2022-08-06T12:25:31;25.40;62.20
46416;DHT22;32620;51.704;7.822;2022-08-06T12:27:57;24.60;62.10
46416;DHT22;32620;51.704;7.822;2022-08-06T12:30:22;24.40;63.20
46416;DHT22;32620;51.704;7.822;2022-08-06T12:32:48;24.20;65.40
46416;DHT22;32620;51.704;7.822;2022-08-06T12:35:14;23.80;61.90
46416;DHT22;32620;51.704;7.822;2022-08-06T12:37:40;23.40;63.90
46416;DHT22;32620;51.704;7.822;2022-08-06T12:40:07;23.70;61.40
46416;DHT22;32620;51.704;7.822;2022-08-06T12:42:55;24.10;60.60
46416;DHT22;32620;51.704;7.822;2022-08-06T12:45:34;24.40;59.80
46416;DHT22;32620;51.704;7.822;2022-08-06T12:48:02;24.20;60.60
46416;DHT22;32620;51.704;7.822;2022-08-06T12:50:28;24.40;60.70
46416;DHT22;32620;51.704;7.822;2022-08-06T12:53:02;24.40;60.10
46416;DHT22;32620;51.704;7.822;2022-08-06T12:55:28;24.00;59.90
46416;DHT22;32620;51.704;7.822;2022-08-06T12:57:54;23.70;62.70
46416;DHT22;32620;51.704;7.822;2022-08-06T13:00:20;23.50;62.40
46416;DHT22;32620;51.704;7.822;2022-08-06T13:02:47;23.20;65.60
46416;DHT22;32620;51.704;7.822;2022-08-06T13:05:12;22.90;64.90
46416;DHT22;32620;51.704;7.822;2022-08-06T13:07:38;22.50;66.90
46416;DHT22;32620;51.704;7.822;2022-08-06T13:10:08;22.40;67.50
46416;DHT22;32620;51.704;7.822;2022-08-06T13:12:34;22.90;68.50
46416;DHT22;32620;51.704;7.822;2022-08-06T13:14:59;23.50;65.30
46416;DHT22;32620;51.704;7.822;2022-08-06T13:17:25;23.70;65.80
46416;DHT22;32620;51.704;7.822;2022-08-06T13:19:52;24.00;64.10
46416;DHT22;32620;51.704;7.822;2022-08-06T13:22:18;23.40;63.20
46416;DHT22;32620;51.704;7.822;2022-08-06T13:24:44;23.30;63.30
46416;DHT22;32620;51.704;7.822;2022-08-06T13:27:09;22.70;66.70
46416;DHT22;32620;51.704;7.822;2022-08-06T13:29:35;22.50;67.40
46416;DHT22;32620;51.704;7.822;2022-08-06T13:32:05;22.30;67.50
46416;DHT22;32620;51.704;7.822;2022-08-06T13:37:39;22.00;70.40
46416;DHT22;32620;51.704;7.822;2022-08-06T13:40:04;22.30;69.30
46416;DHT22;32620;51.704;7.822;2022-08-06T13:42:29;22.30;69.60
46416;DHT22;32620;51.704;7.822;2022-08-06T13:44:55;22.70;68.70
46416;DHT22;32620;51.704;7.822;2022-08-06T13:47:28;23.00;66.00
46416;DHT22;32620;51.704;7.822;2022-08-06T13:49:54;23.40;64.00
46416;DHT22;32620;51.704;7.822;2022-08-06T13:52:20;23.70;61.90
46416;DHT22;32620;51.704;7.822;2022-08-06T13:54:45;23.60;64.00
46416;DHT22;32620;51.704;7.822;2022-08-06T13:57:11;23.70;64.60
46416;DHT22;32620;51.704;7.822;2022-08-06T13:59:36;23.90;65.30
46416;DHT22;32620;51.704;7.822;2022-08-06T14:02:03;23.90;63.60
46416;DHT22;32620;51.704;7.822;2022-08-06T14:04:29;24.10;63.40
46416;DHT22;32620;51.704;7.822;2022-08-06T14:06:55;24.40;62.10
46416;DHT22;32620;51.704;7.822;2022-08-06T14:09:22;24.10;61.40
46416;DHT22;32620;51.704;7.822;2022-08-06T14:11:49;24.60;65.20
46416;DHT22;32620;51.704;7.822;2022-08-06T14:14:15;25.20;62.10
46416;DHT22;32620;51.704;7.822;2022-08-06T14:16:41;24.60;61.40
46416;DHT22;32620;51.704;7.822;2022-08-06T14:19:06;24.40;62.10
46416;DHT22;32620;51.704;7.822;2022-08-06T14:21:32;24.30;62.60
46416;DHT22;32620;51.704;7.822;2022-08-06T14:23:57;23.70;63.00
46416;DHT22;32620;51.704;7.822;2022-08-06T14:26:23;22.80;64.20
46416;DHT22;32620;51.704;7.822;2022-08-06T14:28:48;22.90;66.50
46416;DHT22;32620;51.704;7.822;2022-08-06T14:31:13;23.00;67.30
46416;DHT22;32620;51.704;7.822;2022-08-06T14:33:39;23.00;65.70
46416;DHT22;32620;51.704;7.822;2022-08-06T14:36:05;23.00;65.20
46416;DHT22;32620;51.704;7.822;2022-08-06T14:38:32;22.70;66.40
46416;DHT22;32620;51.704;7.822;2022-08-06T14:40:57;22.50;66.80
46416;DHT22;32620;51.704;7.822;2022-08-06T14:43:42;22.50;68.10
46416;DHT22;32620;51.704;7.822;2022-08-06T14:46:28;22.20;66.10
46416;DHT22;32620;51.704;7.822;2022-08-06T14:48:54;22.20;66.20
46416;DHT22;32620;51.704;7.822;2022-08-06T14:51:19;22.20;66.80
46416;DHT22;32620;51.704;7.822;2022-08-06T14:53:45;22.00;67.60
46416;DHT22;32620;51.704;7.822;2022-08-06T14:56:10;21.90;68.10
46416;DHT22;32620;51.704;7.822;2022-08-06T14:58:36;21.80;68.40
46416;DHT22;32620;51.704;7.822;2022-08-06T15:01:01;22.00;67.30
46416;DHT22;32620;51.704;7.822;2022-08-06T15:03:27;22.30;66.60
46416;DHT22;32620;51.704;7.822;2022-08-06T15:05:53;22.70;65.60
46416;DHT22;32620;51.704;7.822;2022-08-06T15:08:19;22.90;66.20
46416;DHT22;32620;51.704;7.822;2022-08-06T15:10:44;23.00;65.60
46416;DHT22;32620;51.704;7.822;2022-08-06T15:13:10;22.90;66.70
46416;DHT22;32620;51.704;7.822;2022-08-06T15:15:35;23.20;65.80
46416;DHT22;32620;51.704;7.822;2022-08-06T15:18:01;23.40;66.30
46416;DHT22;32620;51.704;7.822;2022-08-06T15:20:26;23.30;64.70
46416;DHT22;32620;51.704;7.822;2022-08-06T15:22:52;23.00;63.10
46416;DHT22;32620;51.704;7.822;2022-08-06T15:25:18;22.90;63.00
46416;DHT22;32620;51.704;7.822;2022-08-06T15:27:44;23.00;63.50
46416;DHT22;32620;51.704;7.822;2022-08-06T15:30:10;23.10;63.90
46416;DHT22;32620;51.704;7.822;2022-08-06T15:32:36;23.10;62.50
46416;DHT22;32620;51.704;7.822;2022-08-06T15:35:01;23.40;64.10
46416;DHT22;32620;51.704;7.822;2022-08-06T15:37:27;23.40;62.90
46416;DHT22;32620;51.704;7.822;2022-08-06T15:39:52;23.50;63.50
46416;DHT22;32620;51.704;7.822;2022-08-06T15:42:18;23.30;63.90
46416;DHT22;32620;51.704;7.822;2022-08-06T15:44:43;23.30;65.40
46416;DHT22;32620;51.704;7.822;2022-08-06T15:47:09;23.30;66.00
46416;DHT22;32620;51.704;7.822;2022-08-06T15:49:36;23.50;66.70
46416;DHT22;32620;51.704;7.822;2022-08-06T15:52:02;23.60;65.80
46416;DHT22;32620;51.704;7.822;2022-08-06T15:54:27;23.40;65.70
46416;DHT22;32620;51.704;7.822;2022-08-06T15:56:53;23.40;65.30
46416;DHT22;32620;51.704;7.822;2022-08-06T15:59:18;23.50;66.20
46416;DHT22;32620;51.704;7.822;2022-08-06T16:01:44;23.60;65.40
46416;DHT22;32620;51.704;7.822;2022-08-06T16:04:09;23.90;66.60
46416;DHT22;32620;51.704;7.822;2022-08-06T16:06:35;23.80;66.20
46416;DHT22;32620;51.704;7.822;2022-08-06T16:09:01;23.90;67.30
46416;DHT22;32620;51.704;7.822;2022-08-06T16:11:26;23.90;66.60